createdAt,value
2022-10-07T04:31:05.860Z,1011.35
2022-10-07T04:32:05.757Z,1011.35
2022-10-07T04:33:05.751Z,1011.26
2022-10-07T04:34:05.725Z,1011.31
2022-10-07T04:35:05.730Z,1011.28
2022-10-07T04:36:05.701Z,1011.24
2022-10-07T04:37:05.709Z,1011.26
2022-10-07T04:38:05.686Z,1011.25
2022-10-07T04:39:05.668Z,1011.17
2022-10-07T04:40:05.654Z,1011.18
2022-10-07T04:41:05.642Z,1011.18
2022-10-07T04:42:05.654Z,1011.16
2022-10-07T04:43:05.645Z,1011.22
2022-10-07T04:44:05.614Z,1011.21
2022-10-07T04:45:05.603Z,1011.17
2022-10-07T04:46:05.612Z,1011.17
2022-10-07T04:47:05.685Z,1011.17
2022-10-07T04:48:05.571Z,1011.17
2022-10-07T04:49:05.569Z,1011.16
2022-10-07T04:50:05.571Z,1011.18
2022-10-07T04:51:05.564Z,1011.11
2022-10-07T04:52:05.526Z,1011.12
2022-10-07T04:53:05.519Z,1011.12
2022-10-07T04:54:05.506Z,1011.11
2022-10-07T04:55:05.502Z,1011.08
2022-10-07T04:56:05.502Z,1011.07
2022-10-07T04:57:05.471Z,1011.02
2022-10-07T04:58:05.461Z,1011.04
2022-10-07T04:59:05.475Z,1011.04
2022-10-07T05:00:05.439Z,1011.04
2022-10-07T05:01:05.483Z,1011.08
2022-10-07T05:02:05.503Z,1011.09
2022-10-07T05:03:05.428Z,1011.06
2022-10-07T05:04:05.395Z,1011.03
2022-10-07T05:05:05.387Z,1011.04
2022-10-07T05:06:06.141Z,1011.02
2022-10-07T05:07:05.365Z,1010.98
2022-10-07T05:08:05.376Z,1010.99
2022-10-07T05:09:05.345Z,1010.97
2022-10-07T05:10:05.332Z,1010.97
2022-10-07T05:11:05.319Z,1010.98
2022-10-07T05:12:05.335Z,1010.95
2022-10-07T05:13:05.296Z,1010.97
2022-10-07T05:14:05.315Z,1010.94
2022-10-07T05:15:05.282Z,1010.95
2022-10-07T05:16:05.323Z,1010.96
2022-10-07T05:17:05.297Z,1010.94
2022-10-07T05:18:05.254Z,1010.93
2022-10-07T05:19:05.251Z,1010.93
2022-10-07T05:20:05.223Z,1010.90
2022-10-07T05:21:05.212Z,1010.90
2022-10-07T05:22:05.219Z,1010.92
2022-10-07T05:23:05.190Z,1010.91
2022-10-07T05:24:05.200Z,1010.86
2022-10-07T05:25:05.168Z,1010.90
2022-10-07T05:26:05.174Z,1010.91
2022-10-07T05:27:05.143Z,1010.92
2022-10-07T05:28:05.211Z,1010.95
2022-10-07T05:29:05.135Z,1010.91
2022-10-07T05:30:05.121Z,1010.90
2022-10-07T05:31:05.227Z,1010.90
2022-10-07T05:32:05.460Z,1010.90
2022-10-07T05:33:05.080Z,1010.92
2022-10-07T05:34:05.093Z,1010.88
2022-10-07T05:35:05.075Z,1010.92
2022-10-07T05:36:05.062Z,1010.94
2022-10-07T05:37:05.051Z,1010.91
2022-10-07T05:38:05.025Z,1010.94
2022-10-07T05:39:05.034Z,1010.95
2022-10-07T05:40:05.008Z,1010.94
2022-10-07T05:41:04.992Z,1010.96
2022-10-07T05:42:05.012Z,1010.93
2022-10-07T05:43:04.973Z,1010.96
2022-10-07T05:44:04.979Z,1010.94
2022-10-07T05:45:04.956Z,1010.92
2022-10-07T05:46:05.040Z,1010.93
2022-10-07T05:47:04.949Z,1010.90
2022-10-07T05:48:04.927Z,1010.89
2022-10-07T05:49:04.905Z,1010.85
2022-10-07T05:50:04.917Z,1010.84
2022-10-07T05:51:04.898Z,1010.81
2022-10-07T05:52:04.873Z,1010.82
2022-10-07T05:53:04.863Z,1010.79
2022-10-07T05:54:04.863Z,1010.80
2022-10-07T05:55:04.869Z,1010.79
2022-10-07T05:56:04.828Z,1010.79
2022-10-07T05:57:04.818Z,1010.76
2022-10-07T05:58:04.808Z,1010.79
2022-10-07T05:59:04.800Z,1010.76
2022-10-07T06:00:04.795Z,1010.72
2022-10-07T06:01:07.726Z,1010.71
2022-10-07T06:02:05.877Z,1010.69
2022-10-07T06:03:04.979Z,1010.71
2022-10-07T06:04:04.776Z,1010.70
2022-10-07T06:05:04.737Z,1010.68
2022-10-07T06:06:04.727Z,1010.67
2022-10-07T06:07:04.791Z,1010.65
2022-10-07T06:08:04.699Z,1010.67
2022-10-07T06:09:04.693Z,1010.66
2022-10-07T06:10:04.677Z,1010.69
2022-10-07T06:11:04.667Z,1010.66
2022-10-07T06:12:04.679Z,1010.64
2022-10-07T06:13:04.657Z,1010.62
2022-10-07T06:14:04.632Z,1010.62
2022-10-07T06:15:04.651Z,1010.61
2022-10-07T06:16:04.609Z,1010.62
2022-10-07T06:17:04.738Z,1010.57
2022-10-07T06:18:04.599Z,1010.60
2022-10-07T06:19:04.606Z,1010.62
2022-10-07T06:20:04.635Z,1010.60
2022-10-07T06:21:04.589Z,1010.58
2022-10-07T06:22:04.545Z,1010.56
2022-10-07T06:23:04.556Z,1010.55
2022-10-07T06:24:04.541Z,1010.56
2022-10-07T06:25:04.514Z,1010.59
2022-10-07T06:26:04.503Z,1010.58
2022-10-07T06:27:04.522Z,1010.62
2022-10-07T06:28:04.536Z,1010.60
2022-10-07T06:29:04.469Z,1010.66
2022-10-07T06:30:04.465Z,1010.64
2022-10-07T06:31:04.490Z,1010.63
2022-10-07T06:32:04.448Z,1010.61
2022-10-07T06:33:04.446Z,1010.62
2022-10-07T06:34:04.417Z,1010.61
2022-10-07T06:35:04.401Z,1010.61
2022-10-07T06:36:04.736Z,1010.62
2022-10-07T06:37:04.407Z,1010.61
2022-10-07T06:38:04.392Z,1010.61
2022-10-07T06:39:04.389Z,1010.67
2022-10-07T06:40:04.347Z,1010.66
2022-10-07T06:41:04.354Z,1010.66
2022-10-07T06:42:04.327Z,1010.67
2022-10-07T06:43:04.333Z,1010.64
2022-10-07T06:44:04.304Z,1010.65
2022-10-07T06:45:04.297Z,1010.63
2022-10-07T06:46:04.463Z,1010.61
2022-10-07T06:47:07.868Z,1010.58
2022-10-07T06:48:05.282Z,1010.61
2022-10-07T06:49:04.250Z,1010.63
2022-10-07T06:50:04.238Z,1010.63
2022-10-07T06:51:04.231Z,1010.70
2022-10-07T06:52:04.237Z,1010.65
2022-10-07T06:53:04.237Z,1010.69
2022-10-07T06:54:04.230Z,1010.69
2022-10-07T06:55:04.204Z,1010.71
2022-10-07T06:56:04.173Z,1010.73
2022-10-07T06:57:20.416Z,1010.74
2022-10-07T06:58:10.559Z,1010.74
2022-10-07T06:59:05.192Z,1010.78
2022-10-07T07:00:04.130Z,1010.75
2022-10-07T07:01:04.153Z,1010.73
2022-10-07T07:02:04.141Z,1010.78
2022-10-07T07:03:04.097Z,1010.73
2022-10-07T07:04:04.091Z,1010.74
2022-10-07T07:05:04.106Z,1010.69
2022-10-07T07:06:04.069Z,1010.71
2022-10-07T07:07:04.052Z,1010.72
2022-10-07T07:08:04.042Z,1010.71
2022-10-07T07:09:04.033Z,1010.63
2022-10-07T07:10:04.021Z,1010.63
2022-10-07T07:11:04.080Z,1010.70
2022-10-07T07:12:04.005Z,1010.62
2022-10-07T07:13:03.999Z,1010.60
2022-10-07T07:14:03.976Z,1010.67
2022-10-07T07:15:03.963Z,1010.64
2022-10-07T07:16:03.957Z,1010.60
2022-10-07T07:17:04.085Z,1010.64
2022-10-07T07:18:03.957Z,1010.60
2022-10-07T07:19:03.922Z,1010.58
2022-10-07T07:20:03.912Z,1010.57
2022-10-07T07:21:03.900Z,1010.53
2022-10-07T07:22:03.889Z,1010.62
2022-10-07T07:23:03.911Z,1010.62
2022-10-07T07:24:03.907Z,1010.63
2022-10-07T07:25:03.864Z,1010.68
2022-10-07T07:26:03.843Z,1010.69
2022-10-07T07:27:03.892Z,1010.66
2022-10-07T07:28:03.906Z,1010.68
2022-10-07T07:29:03.853Z,1010.73
2022-10-07T07:30:03.808Z,1010.69
2022-10-07T07:31:03.863Z,1010.74
2022-10-07T07:32:03.778Z,1010.73
2022-10-07T07:33:03.768Z,1010.75
2022-10-07T07:34:03.752Z,1010.71
2022-10-07T07:35:03.816Z,1010.71
2022-10-07T07:36:03.752Z,1010.71
2022-10-07T07:37:03.740Z,1010.73
2022-10-07T07:38:03.712Z,1010.70
2022-10-07T07:39:03.705Z,1010.74
2022-10-07T07:40:03.693Z,1010.71
2022-10-07T07:41:03.709Z,1010.74
2022-10-07T07:42:03.670Z,1010.76
2022-10-07T07:43:03.691Z,1010.75
2022-10-07T07:44:03.649Z,1010.77
2022-10-07T07:45:03.647Z,1010.70
2022-10-07T07:46:03.672Z,1010.70
2022-10-07T07:47:03.619Z,1010.71
2022-10-07T07:48:03.649Z,1010.68
2022-10-07T07:49:03.603Z,1010.71
2022-10-07T07:50:04.344Z,1010.66
2022-10-07T07:51:03.571Z,1010.66
2022-10-07T07:52:03.584Z,1010.64
2022-10-07T07:53:03.559Z,1010.64
2022-10-07T07:54:03.538Z,1010.64
2022-10-07T07:55:03.522Z,1010.63
2022-10-07T07:56:03.527Z,1010.63
2022-10-07T07:57:03.528Z,1010.63
2022-10-07T07:58:03.493Z,1010.65
2022-10-07T07:59:03.523Z,1010.62
2022-10-07T08:00:03.473Z,1010.60
2022-10-07T08:01:03.586Z,1010.53
2022-10-07T08:02:03.479Z,1010.56
2022-10-07T08:03:03.444Z,1010.51
2022-10-07T08:04:03.427Z,1010.51
2022-10-07T08:05:03.458Z,1010.51
2022-10-07T08:06:03.407Z,1010.52
2022-10-07T08:07:03.396Z,1010.50
2022-10-07T08:08:03.391Z,1010.50
2022-10-07T08:09:03.373Z,1010.53
2022-10-07T08:10:03.395Z,1010.53
2022-10-07T08:11:03.374Z,1010.48
2022-10-07T08:12:03.341Z,1010.47
2022-10-07T08:13:03.358Z,1010.48
2022-10-07T08:14:03.315Z,1010.51
2022-10-07T08:15:03.331Z,1010.47
2022-10-07T08:16:03.415Z,1010.50
2022-10-07T08:17:03.287Z,1010.46
2022-10-07T08:18:03.301Z,1010.44
2022-10-07T08:19:03.263Z,1010.46
2022-10-07T08:20:03.269Z,1010.49
2022-10-07T08:21:03.265Z,1010.51
2022-10-07T08:22:03.237Z,1010.45
2022-10-07T08:23:03.216Z,1010.47
2022-10-07T08:24:03.212Z,1010.48
2022-10-07T08:25:03.218Z,1010.43
2022-10-07T08:26:03.180Z,1010.41
2022-10-07T08:27:03.192Z,1010.45
2022-10-07T08:28:03.201Z,1010.48
2022-10-07T08:29:03.148Z,1010.41
2022-10-07T08:30:03.169Z,1010.40
2022-10-07T08:31:03.224Z,1010.38
2022-10-07T08:32:03.136Z,1010.40
2022-10-07T08:33:03.108Z,1010.42
2022-10-07T08:34:03.109Z,1010.44
2022-10-07T08:35:03.083Z,1010.44
2022-10-07T08:36:03.070Z,1010.42
2022-10-07T08:37:03.087Z,1010.48
2022-10-07T08:38:03.049Z,1010.41
2022-10-07T08:39:03.035Z,1010.39
2022-10-07T08:40:03.031Z,1010.38
2022-10-07T08:41:03.016Z,1010.47
2022-10-07T08:42:03.029Z,1010.39
2022-10-07T08:43:03.005Z,1010.38
2022-10-07T08:44:06.237Z,1010.34
2022-10-07T08:45:02.977Z,1010.36
2022-10-07T08:46:03.011Z,1010.35
2022-10-07T08:47:03.006Z,1010.32
2022-10-07T08:48:02.937Z,1010.31
2022-10-07T08:49:02.927Z,1010.30
2022-10-07T08:50:02.945Z,1010.28
2022-10-07T08:51:02.923Z,1010.25
2022-10-07T08:52:02.925Z,1010.24
2022-10-07T08:53:02.885Z,1010.26
2022-10-07T08:54:02.870Z,1010.21
2022-10-07T08:55:02.886Z,1010.18
2022-10-07T08:56:02.861Z,1010.17
2022-10-07T08:57:02.844Z,1010.17
2022-10-07T08:58:02.857Z,1010.14
2022-10-07T08:59:02.819Z,1010.16
2022-10-07T09:00:02.814Z,1010.15
2022-10-07T09:01:02.895Z,1010.16
2022-10-07T09:02:02.783Z,1010.06
2022-10-07T09:03:02.815Z,1010.10
2022-10-07T09:04:02.791Z,1010.05
2022-10-07T09:05:02.775Z,1010.03
2022-10-07T09:06:02.746Z,1010.04
2022-10-07T09:07:02.736Z,1010.03
2022-10-07T09:08:02.717Z,1010.00
2022-10-07T09:09:02.709Z,1009.93
2022-10-07T09:10:02.743Z,1009.96
2022-10-07T09:11:07.227Z,1009.94
2022-10-07T09:12:03.675Z,1009.95
2022-10-07T09:13:02.664Z,1009.97
2022-10-07T09:14:02.680Z,1009.90
2022-10-07T09:15:02.649Z,1009.81
2022-10-07T09:16:02.692Z,1009.82
2022-10-07T09:17:02.636Z,1009.84
2022-10-07T09:18:02.618Z,1009.81
2022-10-07T09:19:02.671Z,1009.83
2022-10-07T09:20:02.590Z,1009.83
2022-10-07T09:21:02.602Z,1009.81
2022-10-07T09:22:02.612Z,1009.82
2022-10-07T09:23:02.557Z,1009.85
2022-10-07T09:24:02.551Z,1009.85
2022-10-07T09:25:03.159Z,1009.78
2022-10-07T09:26:02.539Z,1009.83
2022-10-07T09:27:02.539Z,1009.79
2022-10-07T09:28:02.553Z,1009.80
2022-10-07T09:29:02.494Z,1009.74
2022-10-07T09:30:02.482Z,1009.80
2022-10-07T09:31:02.591Z,1009.73
2022-10-07T09:32:02.464Z,1009.74
2022-10-07T09:33:02.446Z,1009.74
2022-10-07T09:34:02.459Z,1009.75
2022-10-07T09:35:02.440Z,1009.74
2022-10-07T09:36:02.408Z,1009.75
2022-10-07T09:37:02.401Z,1009.77
2022-10-07T09:38:02.413Z,1009.76
2022-10-07T09:39:02.398Z,1009.75
2022-10-07T09:40:02.393Z,1009.74
2022-10-07T09:41:02.358Z,1009.71
2022-10-07T09:42:02.347Z,1009.72
2022-10-07T09:43:02.344Z,1009.69
2022-10-07T09:44:02.340Z,1009.67
2022-10-07T09:45:02.346Z,1009.63
2022-10-07T09:46:02.360Z,1009.66
2022-10-07T09:47:02.293Z,1009.62
2022-10-07T09:48:02.301Z,1009.60
2022-10-07T09:49:02.268Z,1009.58
2022-10-07T09:50:02.278Z,1009.62
2022-10-07T09:51:02.264Z,1009.50
2022-10-07T09:52:02.250Z,1009.49
2022-10-07T09:53:02.279Z,1009.47
2022-10-07T09:54:02.214Z,1009.46
2022-10-07T09:55:02.227Z,1009.44
2022-10-07T09:56:02.189Z,1009.46
2022-10-07T09:57:02.198Z,1009.42
2022-10-07T09:58:02.177Z,1009.44
2022-10-07T09:59:02.177Z,1009.42
2022-10-07T10:00:02.151Z,1009.42
2022-10-07T10:01:02.166Z,1009.43
2022-10-07T10:02:02.211Z,1009.38
2022-10-07T10:03:05.203Z,1009.40
2022-10-07T10:04:02.107Z,1009.38
2022-10-07T10:05:02.109Z,1009.31
2022-10-07T10:06:02.093Z,1009.33
2022-10-07T10:07:02.104Z,1009.32
2022-10-07T10:08:02.086Z,1009.26
2022-10-07T10:09:02.052Z,1009.26
2022-10-07T10:10:02.051Z,1009.23
2022-10-07T10:11:02.045Z,1009.22
2022-10-07T10:12:02.052Z,1009.26
2022-10-07T10:13:02.045Z,1009.21
2022-10-07T10:14:02.002Z,1009.26
2022-10-07T10:15:01.984Z,1009.22
2022-10-07T10:16:02.094Z,1009.24
2022-10-07T10:17:01.974Z,1009.23
2022-10-07T10:18:01.974Z,1009.23
2022-10-07T10:19:01.942Z,1009.20
2022-10-07T10:20:01.933Z,1009.21
2022-10-07T10:21:01.917Z,1009.16
2022-10-07T10:22:01.933Z,1009.15
2022-10-07T10:23:01.918Z,1009.09
2022-10-07T10:24:01.891Z,1009.07
2022-10-07T10:25:01.878Z,1009.06
2022-10-07T10:26:01.864Z,1009.04
2022-10-07T10:27:01.878Z,1009.02
2022-10-07T10:28:01.876Z,1009.01
2022-10-07T10:29:01.860Z,1008.97
2022-10-07T10:30:01.879Z,1008.99
2022-10-07T10:31:01.829Z,1008.92
2022-10-07T10:32:01.803Z,1008.93
2022-10-07T10:33:01.806Z,1008.91
2022-10-07T10:34:01.802Z,1008.93
2022-10-07T10:35:01.785Z,1008.91
2022-10-07T10:36:01.765Z,1008.87
2022-10-07T10:37:01.742Z,1008.90
2022-10-07T10:38:01.733Z,1008.86
2022-10-07T10:39:01.737Z,1008.85
2022-10-07T10:40:01.737Z,1008.79
2022-10-07T10:41:01.740Z,1008.78
2022-10-07T10:42:01.693Z,1008.80
2022-10-07T10:43:01.688Z,1008.81
2022-10-07T10:44:01.669Z,1008.80
2022-10-07T10:45:01.681Z,1008.72
2022-10-07T10:46:01.647Z,1008.71
2022-10-07T10:47:01.746Z,1008.69
2022-10-07T10:48:01.626Z,1008.69
2022-10-07T10:49:01.683Z,1008.70
2022-10-07T10:50:01.604Z,1008.64
2022-10-07T10:51:01.591Z,1008.64
2022-10-07T10:52:01.607Z,1008.63
2022-10-07T10:53:01.596Z,1008.58
2022-10-07T10:54:01.561Z,1008.62
2022-10-07T10:55:01.576Z,1008.59
2022-10-07T10:56:01.546Z,1008.58
2022-10-07T10:57:01.528Z,1008.53
2022-10-07T10:58:01.565Z,1008.50
2022-10-07T10:59:01.504Z,1008.50
2022-10-07T11:00:01.532Z,1008.48
2022-10-07T11:01:01.514Z,1008.49
2022-10-07T11:02:01.607Z,1008.38
2022-10-07T11:03:01.504Z,1008.32
2022-10-07T11:04:01.458Z,1008.34
2022-10-07T11:05:01.446Z,1008.36
2022-10-07T11:06:01.475Z,1008.32
2022-10-07T11:07:01.435Z,1008.29
2022-10-07T11:08:02.003Z,1008.26
2022-10-07T11:09:01.391Z,1008.24
2022-10-07T11:10:02.062Z,1008.26
2022-10-07T11:11:01.393Z,1008.20
2022-10-07T11:12:01.710Z,1008.24
2022-10-07T11:13:01.355Z,1008.23
2022-10-07T11:14:01.338Z,1008.16
2022-10-07T11:15:02.248Z,1008.20
2022-10-07T11:16:01.442Z,1008.15
2022-10-07T11:17:01.330Z,1008.09
2022-10-07T11:18:01.311Z,1008.09
2022-10-07T11:19:01.291Z,1008.06
2022-10-07T11:20:01.276Z,1008.04
2022-10-07T11:21:01.283Z,1008.02
2022-10-07T11:22:01.252Z,1007.99
2022-10-07T11:23:01.241Z,1008.01
2022-10-07T11:24:01.258Z,1007.94
2022-10-07T11:25:01.245Z,1007.94
2022-10-07T11:26:01.267Z,1007.95
2022-10-07T11:27:01.218Z,1007.93
2022-10-07T11:28:01.262Z,1007.86
2022-10-07T11:29:01.171Z,1007.83
2022-10-07T11:30:01.217Z,1007.80
2022-10-07T11:31:01.236Z,1007.80
2022-10-07T11:32:01.161Z,1007.76
2022-10-07T11:33:01.132Z,1007.75
2022-10-07T11:34:01.122Z,1007.78
2022-10-07T11:35:01.105Z,1007.74
2022-10-07T11:36:01.108Z,1007.73
2022-10-07T11:37:01.124Z,1007.72
2022-10-07T11:38:01.080Z,1007.71
2022-10-07T11:39:01.058Z,1007.70
2022-10-07T11:40:01.053Z,1007.64
2022-10-07T11:41:01.036Z,1007.65
2022-10-07T11:42:01.030Z,1007.64
2022-10-07T11:43:01.091Z,1007.62
2022-10-07T11:44:01.007Z,1007.60
2022-10-07T11:45:00.999Z,1007.58
2022-10-07T11:46:00.984Z,1007.56
2022-10-07T11:47:01.032Z,1007.53
2022-10-07T11:48:00.986Z,1007.53
2022-10-07T11:49:00.961Z,1007.52
2022-10-07T11:50:00.940Z,1007.54
2022-10-07T11:51:00.927Z,1007.49
2022-10-07T11:52:00.915Z,1007.55
2022-10-07T11:53:00.928Z,1007.52
2022-10-07T11:54:00.922Z,1007.53
2022-10-07T11:55:00.890Z,1007.49
2022-10-07T11:56:00.903Z,1007.47
2022-10-07T11:57:00.866Z,1007.44
2022-10-07T11:58:00.868Z,1007.41
2022-10-07T11:59:00.886Z,1007.38
2022-10-07T12:00:00.849Z,1007.33
2022-10-07T12:01:00.825Z,1007.33
2022-10-07T12:02:00.863Z,1007.32
2022-10-07T12:03:00.888Z,1007.24
2022-10-07T12:04:02.282Z,1007.22
2022-10-07T12:05:00.775Z,1007.25
2022-10-07T12:06:00.779Z,1007.23
2022-10-07T12:07:00.771Z,1007.19
2022-10-07T12:08:00.740Z,1007.16
2022-10-07T12:09:00.736Z,1007.14
2022-10-07T12:10:00.721Z,1007.12
2022-10-07T12:11:02.410Z,1007.12
2022-10-07T12:12:00.706Z,1007.14
2022-10-07T12:13:00.702Z,1007.12
2022-10-07T12:14:00.672Z,1007.07
2022-10-07T12:15:00.713Z,1007.06
2022-10-07T12:16:00.697Z,1006.98
2022-10-07T12:17:00.642Z,1006.98
2022-10-07T12:18:00.667Z,1006.96
2022-10-07T12:19:00.616Z,1006.93
2022-10-07T12:20:00.603Z,1006.90
2022-10-07T12:21:00.594Z,1006.84
2022-10-07T12:22:00.603Z,1006.88
2022-10-07T12:23:00.568Z,1006.87
2022-10-07T12:24:00.568Z,1006.79
2022-10-07T12:25:00.558Z,1006.82
2022-10-07T12:26:00.559Z,1006.76
2022-10-07T12:27:00.525Z,1006.74
2022-10-07T12:28:01.329Z,1006.74
2022-10-07T12:29:00.524Z,1006.73
2022-10-07T12:30:00.492Z,1006.70
2022-10-07T12:31:00.540Z,1006.73
2022-10-07T12:32:00.512Z,1006.65
2022-10-07T12:33:00.480Z,1006.68
2022-10-07T12:34:00.451Z,1006.62
2022-10-07T12:35:00.438Z,1006.62
2022-10-07T12:36:00.445Z,1006.62
2022-10-07T12:37:00.422Z,1006.59
2022-10-07T12:38:00.406Z,1006.55
2022-10-07T12:39:00.422Z,1006.49
2022-10-07T12:40:00.385Z,1006.48
2022-10-07T12:41:00.374Z,1006.45
2022-10-07T12:42:00.362Z,1006.41
2022-10-07T12:43:00.369Z,1006.42
2022-10-07T12:44:00.361Z,1006.38
2022-10-07T12:45:00.336Z,1006.40
2022-10-07T12:46:00.378Z,1006.35
2022-10-07T12:47:00.402Z,1006.30
2022-10-07T12:48:00.298Z,1006.29
2022-10-07T12:49:00.305Z,1006.29
2022-10-07T12:50:00.300Z,1006.27
2022-10-07T12:51:00.272Z,1006.28
2022-10-07T12:52:00.276Z,1006.25
2022-10-07T12:53:00.237Z,1006.23
2022-10-07T12:54:00.230Z,1006.15
2022-10-07T12:55:00.256Z,1006.17
2022-10-07T12:56:00.210Z,1006.17
2022-10-07T12:57:00.224Z,1006.17
2022-10-07T12:58:00.193Z,1006.14
2022-10-07T12:59:00.182Z,1006.16
2022-10-07T13:00:00.179Z,1006.15
2022-10-07T13:01:00.281Z,1006.20
2022-10-07T13:02:00.370Z,1006.21
2022-10-07T13:03:00.155Z,1006.13
2022-10-07T13:04:00.123Z,1006.13
2022-10-07T13:05:00.114Z,1006.08
2022-10-07T13:06:00.134Z,1006.07
2022-10-07T13:07:00.107Z,1006.05
2022-10-07T13:08:00.085Z,1006.06
2022-10-07T13:09:00.062Z,1006.06
2022-10-07T13:10:00.060Z,1006.04
2022-10-07T13:11:00.099Z,1005.98
2022-10-07T13:12:00.030Z,1005.94
2022-10-07T13:13:00.033Z,1005.96
2022-10-07T13:14:00.032Z,1005.91
2022-10-07T13:15:00.004Z,1005.91
2022-10-07T13:16:00.063Z,1005.94
2022-10-07T13:16:59.983Z,1005.88
2022-10-07T13:17:59.975Z,1005.84
2022-10-07T13:19:00.025Z,1005.84
2022-10-07T13:19:59.948Z,1005.84
2022-10-07T13:20:59.935Z,1005.83
2022-10-07T13:21:59.924Z,1005.85
2022-10-07T13:22:59.914Z,1005.82
2022-10-07T13:23:59.902Z,1005.81
2022-10-07T13:24:59.939Z,1005.77
2022-10-07T13:25:59.887Z,1005.71
2022-10-07T13:26:59.879Z,1005.72
2022-10-07T13:27:59.904Z,1005.73
2022-10-07T13:28:59.847Z,1005.66
2022-10-07T13:29:59.843Z,1005.63
2022-10-07T13:30:59.854Z,1005.61
2022-10-07T13:31:59.899Z,1005.59
2022-10-07T13:32:59.802Z,1005.62
2022-10-07T13:33:59.808Z,1005.60
2022-10-07T13:34:59.844Z,1005.54
2022-10-07T13:35:59.768Z,1005.56
2022-10-07T13:36:59.778Z,1005.52
2022-10-07T13:37:59.748Z,1005.50
2022-10-07T13:38:59.739Z,1005.49
2022-10-07T13:39:59.816Z,1005.47
2022-10-07T13:40:59.745Z,1005.48
2022-10-07T13:41:59.710Z,1005.50
2022-10-07T13:42:59.727Z,1005.48
2022-10-07T13:43:59.685Z,1005.51
2022-10-07T13:44:59.674Z,1005.50
2022-10-07T13:45:59.746Z,1005.46
2022-10-07T13:46:59.676Z,1005.46
2022-10-07T13:47:59.638Z,1005.43
2022-10-07T13:48:59.671Z,1005.46
2022-10-07T13:49:59.713Z,1005.42
2022-10-07T13:50:59.711Z,1005.41
2022-10-07T13:51:59.617Z,1005.39
2022-10-07T13:52:59.590Z,1005.39
2022-10-07T13:53:59.589Z,1005.37
2022-10-07T13:54:59.582Z,1005.40
2022-10-07T13:55:59.572Z,1005.32
2022-10-07T13:56:59.547Z,1005.31
2022-10-07T13:57:59.546Z,1005.30
2022-10-07T13:58:59.523Z,1005.37
2022-10-07T13:59:59.533Z,1005.37
2022-10-07T14:00:59.559Z,1005.37
2022-10-07T14:01:59.590Z,1005.38
2022-10-07T14:02:59.583Z,1005.33
2022-10-07T14:03:59.462Z,1005.33
2022-10-07T14:04:59.453Z,1005.34
2022-10-07T14:05:59.442Z,1005.28
2022-10-07T14:06:59.471Z,1005.24
2022-10-07T14:07:59.422Z,1005.23
2022-10-07T14:08:59.415Z,1005.21
2022-10-07T14:09:59.490Z,1005.21
2022-10-07T14:10:59.391Z,1005.19
2022-10-07T14:11:59.372Z,1005.18
2022-10-07T14:12:59.405Z,1005.15
2022-10-07T14:13:59.363Z,1005.08
2022-10-07T14:14:59.344Z,1005.12
2022-10-07T14:15:59.336Z,1005.09
2022-10-07T14:16:59.515Z,1005.06
2022-10-07T14:17:59.336Z,1005.09
2022-10-07T14:18:59.313Z,1005.04
2022-10-07T14:19:59.374Z,1005.01
2022-10-07T14:20:59.282Z,1004.99
2022-10-07T14:21:59.299Z,1004.96
2022-10-07T14:22:59.329Z,1005.00
2022-10-07T14:23:59.246Z,1004.91
2022-10-07T14:24:59.282Z,1004.95
2022-10-07T14:25:59.222Z,1004.91
2022-10-07T14:26:59.214Z,1004.92
2022-10-07T14:27:59.296Z,1004.88
2022-10-07T14:28:59.212Z,1004.87
2022-10-07T14:29:59.211Z,1004.85
2022-10-07T14:30:59.317Z,1004.87
2022-10-07T14:31:59.157Z,1004.89
2022-10-07T14:32:59.149Z,1004.87
2022-10-07T14:33:59.151Z,1004.87
2022-10-07T14:34:59.128Z,1004.83
2022-10-07T14:35:59.113Z,1004.80
2022-10-07T14:36:59.110Z,1004.84
2022-10-07T14:37:59.088Z,1004.81
2022-10-07T14:38:59.121Z,1004.79
2022-10-07T14:39:59.138Z,1004.77
2022-10-07T14:40:59.074Z,1004.74
2022-10-07T14:41:59.057Z,1004.76
2022-10-07T14:42:59.050Z,1004.74
2022-10-07T14:43:59.049Z,1004.73
2022-10-07T14:44:59.046Z,1004.69
2022-10-07T14:45:59.075Z,1004.67
2022-10-07T14:46:59.028Z,1004.64
2022-10-07T14:47:58.999Z,1004.60
2022-10-07T14:48:58.976Z,1004.63
2022-10-07T14:49:59.037Z,1004.55
2022-10-07T14:50:58.948Z,1004.57
2022-10-07T14:51:58.938Z,1004.55
2022-10-07T14:52:58.954Z,1004.56
2022-10-07T14:53:58.942Z,1004.53
2022-10-07T14:54:58.925Z,1004.54
2022-10-07T14:55:58.932Z,1004.48
2022-10-07T14:56:58.896Z,1004.53
2022-10-07T14:57:58.920Z,1004.45
2022-10-07T14:58:58.873Z,1004.50
2022-10-07T14:59:58.944Z,1004.46
2022-10-07T15:00:58.859Z,1004.45
2022-10-07T15:01:58.827Z,1004.44
2022-10-07T15:02:58.823Z,1004.40
2022-10-07T15:03:58.980Z,1004.44
2022-10-07T15:04:58.878Z,1004.41
2022-10-07T15:05:58.787Z,1004.37
2022-10-07T15:06:58.794Z,1004.37
2022-10-07T15:07:58.793Z,1004.32
2022-10-07T15:08:58.781Z,1004.34
2022-10-07T15:09:58.741Z,1004.30
2022-10-07T15:10:58.776Z,1004.29
2022-10-07T15:11:58.736Z,1004.24
2022-10-07T15:12:58.734Z,1004.22
2022-10-07T15:13:58.718Z,1004.24
2022-10-07T15:14:58.692Z,1004.21
2022-10-07T15:15:58.678Z,1004.20
2022-10-07T15:16:58.772Z,1004.21
2022-10-07T15:17:58.658Z,1004.18
2022-10-07T15:18:58.659Z,1004.15
2022-10-07T15:19:58.636Z,1004.19
2022-10-07T15:20:58.634Z,1004.16
2022-10-07T15:21:58.637Z,1004.14
2022-10-07T15:22:58.606Z,1004.13
2022-10-07T15:23:58.587Z,1004.13
2022-10-07T15:24:58.591Z,1004.11
2022-10-07T15:25:58.569Z,1004.11
2022-10-07T15:26:58.624Z,1004.06
2022-10-07T15:27:58.626Z,1004.07
2022-10-07T15:28:58.552Z,1004.06
2022-10-07T15:29:58.540Z,1004.03
2022-10-07T15:30:58.568Z,1004.03
2022-10-07T15:31:58.528Z,1004.01
2022-10-07T15:32:58.500Z,1004.03
2022-10-07T15:33:58.507Z,1003.99
2022-10-07T15:34:58.472Z,1003.99
2022-10-07T15:35:58.476Z,1004.01
2022-10-07T15:36:58.466Z,1003.98
2022-10-07T15:37:58.443Z,1003.95
2022-10-07T15:38:58.438Z,1003.96
2022-10-07T15:39:58.430Z,1003.93
2022-10-07T15:40:58.406Z,1003.92
2022-10-07T15:41:58.413Z,1003.91
2022-10-07T15:42:58.479Z,1003.84
2022-10-07T15:43:58.378Z,1003.82
2022-10-07T15:44:58.368Z,1003.79
2022-10-07T15:45:58.407Z,1003.83
2022-10-07T15:46:58.348Z,1003.79
2022-10-07T15:48:00.600Z,1003.80
2022-10-07T15:48:58.318Z,1003.80
2022-10-07T15:49:58.325Z,1003.79
2022-10-07T15:50:58.311Z,1003.78
2022-10-07T15:51:58.292Z,1003.77
2022-10-07T15:52:58.278Z,1003.74
2022-10-07T15:53:58.273Z,1003.76
2022-10-07T15:54:58.283Z,1003.75
2022-10-07T15:55:58.248Z,1003.79
2022-10-07T15:56:58.236Z,1003.77
2022-10-07T15:57:58.220Z,1003.74
2022-10-07T15:58:58.226Z,1003.75
2022-10-07T15:59:58.226Z,1003.76
2022-10-07T16:00:58.226Z,1003.75
2022-10-07T16:01:58.210Z,1003.77
2022-10-07T16:02:58.193Z,1003.74
2022-10-07T16:03:58.180Z,1003.80
2022-10-07T16:04:58.159Z,1003.75
2022-10-07T16:05:58.161Z,1003.72
2022-10-07T16:06:58.174Z,1003.73
2022-10-07T16:07:58.108Z,1003.74
2022-10-07T16:08:58.102Z,1003.74
2022-10-07T16:09:58.112Z,1003.72
2022-10-07T16:10:58.102Z,1003.76
2022-10-07T16:11:58.088Z,1003.77
2022-10-07T16:12:58.054Z,1003.74
2022-10-07T16:13:58.045Z,1003.74
2022-10-07T16:14:58.085Z,1003.73
2022-10-07T16:15:58.049Z,1003.71
2022-10-07T16:16:58.022Z,1003.72
2022-10-07T16:17:58.022Z,1003.72
2022-10-07T16:18:58.004Z,1003.69
2022-10-07T16:19:58.013Z,1003.70
2022-10-07T16:20:57.980Z,1003.68
2022-10-07T16:21:57.955Z,1003.70
2022-10-07T16:22:57.954Z,1003.71
2022-10-07T16:23:57.981Z,1003.74
2022-10-07T16:24:57.926Z,1003.75
2022-10-07T16:25:57.910Z,1003.77
2022-10-07T16:26:57.900Z,1003.75
2022-10-07T16:27:57.892Z,1003.74
2022-10-07T16:28:57.878Z,1003.72
2022-10-07T16:29:57.895Z,1003.72
2022-10-07T16:30:57.903Z,1003.71
2022-10-07T16:31:59.133Z,1003.74
2022-10-07T16:32:57.840Z,1003.77
2022-10-07T16:33:57.828Z,1003.78
2022-10-07T16:34:57.820Z,1003.79
2022-10-07T16:35:57.844Z,1003.79